Juergen K — PBKV — position and weather

sailwx.info

Track history (hours):
 
Tides and Currents Weather Stations Pressure Air Temp Water Temp Dewpoint Dewpoint Depression Visibility Wind Speed Wind Dir Waves Ship Positions

Juergen K

Last reported at 2014-Dec-19 09:31 UTC. Time now 2014-Dec-19 10:05 UTC.
Position N 39°33' E 002°38'.

; draft 5.4 m.

Type: Cargo ship. MMSI: 244329000.

Date/timePositionNaut miles runAvg speedWind from/ knotsBaromVisibWave heightAir tempDewpointWater temp
2014-Dec-19 09:31N 39°33' E 002°38'0 0.0
2014-Dec-19 08:31N 39°33' E 002°38'0 0.0
2014-Dec-19 07:31N 39°33' E 002°38'0 0.0
2014-Dec-19 06:32N 39°33' E 002°38'0 0.0
2014-Dec-19 05:33N 39°33' E 002°37'0 0.0
2014-Dec-19 04:33N 39°33' E 002°38'0 0.0
2014-Dec-19 03:34N 39°33' E 002°38'0 0.0
2014-Dec-19 02:34N 39°33' E 002°38'0 0.0
2014-Dec-19 01:34N 39°33' E 002°38'0 0.0
2014-Dec-19 00:34N 39°33' E 002°38'0 0.0
2014-Dec-18 23:33N 39°33' E 002°38'1 1.0
2014-Dec-18 22:33N 39°33' E 002°39'9 9.0
2014-Dec-18 21:33N 39°25' E 002°33'9 9.3
2014-Dec-18 20:34N 39°29' E 002°21'9 9.1
2014-Dec-18 19:34N 39°36' E 002°14'9 9.4
2014-Dec-18 18:33N 39°44' E 002°20'9 9.2
2014-Dec-18 17:33N 39°52' E 002°26'9 9.3
2014-Dec-18 16:33N 39°60' E 002°32'9 8.8
2014-Dec-18 15:33N 40°08' E 002°38'9 9.4
2014-Dec-18 14:33N 40°16' E 002°44'9 9.3
2014-Dec-18 13:33N 40°24' E 002°50'9 9.2
2014-Dec-18 12:33N 40°32' E 002°57'9 9.2
2014-Dec-18 11:33N 40°40' E 003°03'9 9.3
2014-Dec-18 10:33N 40°48' E 003°09'10 9.8
2014-Dec-18 09:32N 40°56' E 003°15'9 9.7
2014-Dec-18 08:33N 41°05' E 003°21'10 9.8
2014-Dec-18 07:33N 41°13' E 003°28'1111.4
2014-Dec-18 06:33N 41°23' E 003°35'1010.1
2014-Dec-18 05:32N 41°32' E 003°42'1010.6
2014-Dec-18 04:33N 41°41' E 003°49'10 9.9
2014-Dec-18 03:34N 41°50' E 003°54'10 9.9
2014-Dec-18 02:33N 41°59' E 004°01'9 9.2
2014-Dec-18 01:33N 42°06' E 004°08'9 9.5
2014-Dec-18 00:34N 42°14' E 004°15'9 8.9
2014-Dec-17 23:34N 42°22' E 004°21'10 8.4
2014-Dec-17 22:21N 42°31' E 004°28'9 8.5
2014-Dec-17 21:16N 42°39' E 004°34'18 9.2
2014-Dec-17 19:21N 42°54' E 004°45'19 9.3
2014-Dec-17 17:21N 43°11' E 004°56'8 9.7
2014-Dec-17 16:33N 43°19' E 004°58'7 6.6
2014-Dec-17 15:33N 43°24' E 004°51'0 0.0
2014-Dec-17 14:22N 43°24' E 004°51'0 0.0
2014-Dec-17 13:28N 43°24' E 004°51'0 0.0
2014-Dec-17 12:31N 43°24' E 004°51'0 0.0
2014-Dec-17 11:28N 43°24' E 004°51'0 0.0
2014-Dec-17 10:31N 43°24' E 004°51'0 0.0
2014-Dec-17 09:22N 43°24' E 004°51'0 0.0
2014-Dec-17 08:28N 43°24' E 004°51'0 0.0
2014-Dec-17 07:28N 43°24' E 004°51'0 0.0
2014-Dec-17 06:31N 43°24' E 004°51'0 0.0
2014-Dec-17 05:31N 43°24' E 004°51'0 0.0
2014-Dec-17 04:31N 43°24' E 004°51'0 0.0
2014-Dec-17 03:31N 43°24' E 004°51'0 0.0
2014-Dec-17 02:31N 43°24' E 004°51'0 0.0
2014-Dec-17 01:22N 43°24' E 004°51'0 0.0
2014-Dec-17 00:25N 43°24' E 004°51'0 0.0
2014-Dec-16 23:28N 43°24' E 004°51'0 0.0
2014-Dec-16 22:31N 43°24' E 004°51'0 0.0
2014-Dec-16 21:31N 43°24' E 004°51'0 0.0
2014-Dec-16 20:28N 43°24' E 004°51'0 0.0
2014-Dec-16 19:31N 43°24' E 004°51'0 0.0
2014-Dec-16 18:22N 43°24' E 004°51'0 0.0
2014-Dec-16 17:28N 43°24' E 004°51'0 0.0
2014-Dec-16 16:31N 43°24' E 004°51'0 0.0
2014-Dec-16 15:25N 43°24' E 004°51'0 0.0
2014-Dec-16 14:31N 43°24' E 004°51'0 0.0
2014-Dec-16 13:31N 43°24' E 004°51'0 0.0
2014-Dec-16 12:31N 43°24' E 004°51'0 0.0
2014-Dec-16 11:28N 43°24' E 004°51'0 0.0
2014-Dec-16 10:28N 43°24' E 004°51'0 0.0
2014-Dec-16 09:31N 43°24' E 004°51'0 0.0
2014-Dec-16 08:28N 43°24' E 004°51'0 0.0
2014-Dec-16 07:28N 43°24' E 004°51'0 0.0
2014-Dec-16 06:31N 43°24' E 004°51'0 0.0
2014-Dec-16 05:25N 43°24' E 004°51'0 0.0
2014-Dec-16 04:32N 43°24' E 004°51'0 0.0
2014-Dec-16 03:31N 43°24' E 004°51'0 0.0
2014-Dec-16 02:25N 43°24' E 004°51'0 0.0
2014-Dec-16 01:10N 43°24' E 004°51'0 0.0
2014-Dec-16 00:16N 43°24' E 004°51'0 0.0
2014-Dec-15 23:28N 43°24' E 004°51'0 0.0
2014-Dec-15 22:31N 43°24' E 004°51'0 0.0
2014-Dec-15 21:28N 43°24' E 004°51'0 0.0
2014-Dec-15 20:28N 43°24' E 004°51'0 0.0
2014-Dec-15 19:28N 43°24' E 004°51'0 0.0
2014-Dec-15 18:31N 43°24' E 004°51'0 0.0
2014-Dec-15 17:31N 43°24' E 004°51'0 0.0
2014-Dec-15 16:31N 43°24' E 004°51'0 0.0
2014-Dec-15 15:31N 43°24' E 004°51'0 0.0
2014-Dec-15 14:31N 43°24' E 004°51'0 0.0
2014-Dec-15 13:19N 43°24' E 004°51'0 0.0
2014-Dec-15 12:25N 43°24' E 004°51'0 0.0
2014-Dec-15 11:28N 43°24' E 004°51'0 0.0
2014-Dec-15 10:31N 43°24' E 004°51'0 0.0
2014-Dec-15 09:31N 43°24' E 004°51'0 0.0
2014-Dec-15 08:28N 43°24' E 004°51'0 0.0
2014-Dec-15 07:31N 43°24' E 004°51'0 0.0
2014-Dec-15 06:31N 43°24' E 004°51'0 0.0
2014-Dec-15 05:31N 43°24' E 004°51'0 0.0
2014-Dec-15 04:31N 43°24' E 004°51'0 0.0
2014-Dec-15 03:31N 43°24' E 004°51'0 0.0
2014-Dec-15 02:31N 43°24' E 004°51'0 0.0
2014-Dec-15 01:31N 43°24' E 004°51'0 0.0
2014-Dec-15 00:31N 43°24' E 004°51'0 0.0
2014-Dec-14 23:28N 43°24' E 004°51'0 0.0
2014-Dec-14 22:31N 43°24' E 004°51'0 0.0
2014-Dec-14 21:31N 43°24' E 004°51'0 0.0
2014-Dec-14 20:28N 43°24' E 004°51'0 0.0
2014-Dec-14 19:31N 43°24' E 004°51'0 0.0
2014-Dec-14 18:31N 43°24' E 004°51'0 0.0
2014-Dec-14 17:25N 43°24' E 004°51'0 0.0
2014-Dec-14 16:31N 43°24' E 004°51'0 0.0
2014-Dec-14 15:28N 43°24' E 004°51'0 0.0
2014-Dec-14 14:31N 43°24' E 004°51'0 0.0
2014-Dec-14 13:28N 43°24' E 004°51'0 0.0
2014-Dec-14 12:31N 43°24' E 004°51'0 0.0
2014-Dec-14 11:31N 43°24' E 004°51'0 0.0
2014-Dec-14 10:31N 43°24' E 004°51'0 0.0
2014-Dec-14 09:28N 43°24' E 004°51'0 0.0
2014-Dec-14 08:28N 43°24' E 004°51'0 0.0
2014-Dec-14 07:28N 43°24' E 004°51'0 0.0
2014-Dec-14 06:31N 43°24' E 004°51'0 0.0
2014-Dec-14 05:28N 43°24' E 004°51'0 0.0
2014-Dec-14 04:31N 43°24' E 004°51'0 0.0
2014-Dec-14 03:31N 43°24' E 004°51'0 0.0
2014-Dec-14 02:31N 43°24' E 004°51'0 0.0
2014-Dec-14 01:31N 43°24' E 004°51'0 0.0
2014-Dec-14 00:31N 43°24' E 004°51'0 0.0
2014-Dec-13 23:31N 43°24' E 004°51'0 0.0
2014-Dec-13 22:31N 43°24' E 004°51'0 0.0
2014-Dec-13 21:31N 43°24' E 004°51'0 0.0
2014-Dec-13 20:31N 43°24' E 004°51'0 0.0
2014-Dec-13 19:31N 43°24' E 004°51'0 0.0
2014-Dec-13 18:28N 43°24' E 004°51'0 0.0
2014-Dec-13 17:31N 43°24' E 004°51'0 0.0
2014-Dec-13 16:31N 43°24' E 004°51'0 0.0
2014-Dec-13 15:28N 43°24' E 004°51'0 0.0
2014-Dec-13 14:25N 43°24' E 004°51'0 0.0
2014-Dec-13 13:31N 43°24' E 004°51'0 0.0
2014-Dec-13 12:31N 43°24' E 004°51'0 0.0
2014-Dec-13 11:31N 43°24' E 004°51'0 0.0
2014-Dec-13 10:22N 43°24' E 004°51'0 0.0
2014-Dec-13 09:28N 43°24' E 004°51'0 0.0
2014-Dec-13 08:31N 43°24' E 004°51'0 0.0
2014-Dec-13 07:28N 43°24' E 004°51'0 0.0
2014-Dec-13 06:33N 43°24' E 004°51'0 0.0
2014-Dec-13 05:33N 43°24' E 004°51'0 0.0
2014-Dec-13 04:33N 43°24' E 004°51'0 0.0
2014-Dec-13 03:33N 43°24' E 004°51'0 0.0
2014-Dec-13 02:33N 43°24' E 004°51'0 0.0
2014-Dec-13 01:33N 43°24' E 004°51'0 0.0
2014-Dec-13 00:33N 43°24' E 004°51'0 0.0
2014-Dec-12 23:33N 43°24' E 004°51'0 0.0
2014-Dec-12 22:33N 43°24' E 004°51'0 0.0
2014-Dec-12 21:33N 43°24' E 004°51'0 0.0
2014-Dec-12 20:33N 43°24' E 004°51'0 0.0
2014-Dec-12 19:33N 43°24' E 004°51'0 0.0
2014-Dec-12 18:33N 43°24' E 004°51'0 0.0
2014-Dec-12 17:33N 43°24' E 004°51'0 0.0
2014-Dec-12 16:33N 43°24' E 004°51'6 5.9
2014-Dec-12 15:33N 43°21' E 004°58'1111.0
2014-Dec-12 14:33N 43°11' E 005°02'3711.0
2014-Dec-12 11:10N 42°39' E 004°35'2211.4
2014-Dec-12 09:14N 42°20' E 004°20'1011.0
2014-Dec-12 08:20N 42°11' E 004°14'9410.7
2014-Dec-11 23:33N 40°50' E 003°11'1010.2
2014-Dec-11 22:33N 40°41' E 003°04'1110.6
2014-Dec-11 21:33N 40°32' E 002°57'1110.8
2014-Dec-11 20:33N 40°23' E 002°50'1110.6
2014-Dec-11 19:33N 40°13' E 002°43'1010.4
2014-Dec-11 18:33N 40°04' E 002°36'1010.5
2014-Dec-11 17:33N 39°55' E 002°29'1010.2
2014-Dec-11 16:33N 39°46' E 002°23'1110.6
2014-Dec-11 15:33N 39°37' E 002°16'10 9.8
2014-Dec-11 14:33N 39°28' E 002°22'9 9.4
2014-Dec-11 13:33N 39°26' E 002°33'8 7.9
2014-Dec-11 12:32N 39°33' E 002°38'0 0.1
2014-Dec-11 11:32N 39°33' E 002°38'0 0.0
2014-Dec-11 10:32N 39°33' E 002°38'0 0.0
2014-Dec-11 09:32N 39°33' E 002°38'0 0.0
2014-Dec-11 08:32N 39°33' E 002°38'0 0.0
2014-Dec-11 07:32N 39°33' E 002°38'0 0.0
2014-Dec-11 06:32N 39°33' E 002°38'0 0.0
2014-Dec-11 05:32N 39°33' E 002°38'0 0.0
2014-Dec-11 04:32N 39°33' E 002°38'0 0.0
2014-Dec-11 03:32N 39°33' E 002°38'0 0.0
2014-Dec-11 02:32N 39°33' E 002°38'0 0.0
2014-Dec-11 01:32N 39°33' E 002°38'0 0.0
2014-Dec-11 00:32N 39°33' E 002°38'0 0.0
2014-Dec-10 23:32N 39°33' E 002°38'0 0.0
2014-Dec-10 22:32N 39°33' E 002°38'0 0.0
2014-Dec-10 21:32N 39°33' E 002°38'0 0.0
2014-Dec-10 20:32N 39°33' E 002°38'0 0.0
2014-Dec-10 19:32N 39°33' E 002°38'0 0.0
2014-Dec-10 18:32N 39°33' E 002°38'0 0.0
2014-Dec-10 17:32N 39°33' E 002°38'0 0.0
2014-Dec-10 16:32N 39°33' E 002°38'0 0.0
2014-Dec-10 15:32N 39°33' E 002°38'0 0.0
2014-Dec-10 14:32N 39°33' E 002°38'0 0.0
2014-Dec-10 13:32N 39°33' E 002°38'0 0.0
2014-Dec-10 12:32N 39°33' E 002°38'0 0.0
2014-Dec-10 11:32N 39°33' E 002°38'0 0.0
2014-Dec-10 10:32N 39°33' E 002°38'0 0.0
2014-Dec-10 09:32N 39°33' E 002°38'0 0.0
2014-Dec-10 08:32N 39°33' E 002°38'0 0.0
2014-Dec-10 07:32N 39°33' E 002°38'0 0.0
2014-Dec-10 06:32N 39°33' E 002°38'0 0.0
2014-Dec-10 05:32N 39°33' E 002°38'0 0.0
2014-Dec-10 04:32N 39°33' E 002°38'0 0.0
2014-Dec-10 03:32N 39°33' E 002°38'0 0.0
2014-Dec-10 02:29N 39°33' E 002°38'0 0.0
2014-Dec-10 01:32N 39°33' E 002°38'0 0.0
2014-Dec-10 00:32N 39°33' E 002°38'0 0.0
2014-Dec-09 23:32N 39°33' E 002°38'0 0.0
2014-Dec-09 22:32N 39°33' E 002°38'0 0.0
2014-Dec-09 21:29N 39°33' E 002°38'0 0.0
2014-Dec-09 20:32N 39°33' E 002°38'0 0.0
2014-Dec-09 19:32N 39°33' E 002°38'0 0.0
2014-Dec-09 18:33N 39°33' E 002°38'2 2.3
2014-Dec-09 17:33N 39°32' E 002°40'0 0.4
2014-Dec-09 16:32N 39°32' E 002°40'0 0.0
2014-Dec-09 15:32N 39°32' E 002°40'0 0.0
2014-Dec-09 14:32N 39°32' E 002°40'0 0.0
2014-Dec-09 13:32N 39°32' E 002°40'0 0.0
2014-Dec-09 12:32N 39°32' E 002°40'0 0.0
2014-Dec-09 11:32N 39°32' E 002°40'0 0.0
2014-Dec-09 10:32N 39°32' E 002°40'0 0.0
2014-Dec-09 09:32N 39°32' E 002°40'  
Track history (hours):
 
Tides and Currents Weather Stations Pressure Air Temp Water Temp Dewpoint Dewpoint Depression Visibility Wind Speed Wind Dir Waves Ship Positions

Juergen K

Last reported at 2014-Dec-19 09:31 UTC. Time now 2014-Dec-19 10:05 UTC.
Position N 39°33' E 002°38'.

; draft 5.4 m.

Type: Cargo ship. MMSI: 244329000.

Date/timePositionNaut miles runAvg speedWind from/ knotsBaromVisibWave heightAir tempDewpointWater temp
2014-Dec-19 09:31N 39°33' E 002°38'0 0.0
2014-Dec-19 08:31N 39°33' E 002°38'0 0.0
2014-Dec-19 07:31N 39°33' E 002°38'0 0.0
2014-Dec-19 06:32N 39°33' E 002°38'0 0.0
2014-Dec-19 05:33N 39°33' E 002°37'0 0.0
2014-Dec-19 04:33N 39°33' E 002°38'0 0.0
2014-Dec-19 03:34N 39°33' E 002°38'0 0.0
2014-Dec-19 02:34N 39°33' E 002°38'0 0.0
2014-Dec-19 01:34N 39°33' E 002°38'0 0.0
2014-Dec-19 00:34N 39°33' E 002°38'0 0.0
2014-Dec-18 23:33N 39°33' E 002°38'1 1.0
2014-Dec-18 22:33N 39°33' E 002°39'9 9.0
2014-Dec-18 21:33N 39°25' E 002°33'9 9.3
2014-Dec-18 20:34N 39°29' E 002°21'9 9.1
2014-Dec-18 19:34N 39°36' E 002°14'9 9.4
2014-Dec-18 18:33N 39°44' E 002°20'9 9.2
2014-Dec-18 17:33N 39°52' E 002°26'9 9.3
2014-Dec-18 16:33N 39°60' E 002°32'9 8.8
2014-Dec-18 15:33N 40°08' E 002°38'9 9.4
2014-Dec-18 14:33N 40°16' E 002°44'9 9.3
2014-Dec-18 13:33N 40°24' E 002°50'9 9.2
2014-Dec-18 12:33N 40°32' E 002°57'9 9.2
2014-Dec-18 11:33N 40°40' E 003°03'9 9.3
2014-Dec-18 10:33N 40°48' E 003°09'10 9.8
2014-Dec-18 09:32N 40°56' E 003°15'9 9.7
2014-Dec-18 08:33N 41°05' E 003°21'10 9.8
2014-Dec-18 07:33N 41°13' E 003°28'1111.4
2014-Dec-18 06:33N 41°23' E 003°35'1010.1
2014-Dec-18 05:32N 41°32' E 003°42'1010.6
2014-Dec-18 04:33N 41°41' E 003°49'10 9.9
2014-Dec-18 03:34N 41°50' E 003°54'10 9.9
2014-Dec-18 02:33N 41°59' E 004°01'9 9.2
2014-Dec-18 01:33N 42°06' E 004°08'9 9.5
2014-Dec-18 00:34N 42°14' E 004°15'9 8.9
2014-Dec-17 23:34N 42°22' E 004°21'10 8.4
2014-Dec-17 22:21N 42°31' E 004°28'9 8.5
2014-Dec-17 21:16N 42°39' E 004°34'18 9.2
2014-Dec-17 19:21N 42°54' E 004°45'19 9.3
2014-Dec-17 17:21N 43°11' E 004°56'8 9.7
2014-Dec-17 16:33N 43°19' E 004°58'7 6.6
2014-Dec-17 15:33N 43°24' E 004°51'0 0.0
2014-Dec-17 14:22N 43°24' E 004°51'0 0.0
2014-Dec-17 13:28N 43°24' E 004°51'0 0.0
2014-Dec-17 12:31N 43°24' E 004°51'0 0.0
2014-Dec-17 11:28N 43°24' E 004°51'0 0.0
2014-Dec-17 10:31N 43°24' E 004°51'0 0.0
2014-Dec-17 09:22N 43°24' E 004°51'0 0.0
2014-Dec-17 08:28N 43°24' E 004°51'0 0.0
2014-Dec-17 07:28N 43°24' E 004°51'0 0.0
2014-Dec-17 06:31N 43°24' E 004°51'0 0.0
2014-Dec-17 05:31N 43°24' E 004°51'0 0.0
2014-Dec-17 04:31N 43°24' E 004°51'0 0.0
2014-Dec-17 03:31N 43°24' E 004°51'0 0.0
2014-Dec-17 02:31N 43°24' E 004°51'0 0.0
2014-Dec-17 01:22N 43°24' E 004°51'0 0.0
2014-Dec-17 00:25N 43°24' E 004°51'0 0.0
2014-Dec-16 23:28N 43°24' E 004°51'0 0.0
2014-Dec-16 22:31N 43°24' E 004°51'0 0.0
2014-Dec-16 21:31N 43°24' E 004°51'0 0.0
2014-Dec-16 20:28N 43°24' E 004°51'0 0.0
2014-Dec-16 19:31N 43°24' E 004°51'0 0.0
2014-Dec-16 18:22N 43°24' E 004°51'0 0.0
2014-Dec-16 17:28N 43°24' E 004°51'0 0.0
2014-Dec-16 16:31N 43°24' E 004°51'0 0.0
2014-Dec-16 15:25N 43°24' E 004°51'0 0.0
2014-Dec-16 14:31N 43°24' E 004°51'0 0.0
2014-Dec-16 13:31N 43°24' E 004°51'0 0.0
2014-Dec-16 12:31N 43°24' E 004°51'0 0.0
2014-Dec-16 11:28N 43°24' E 004°51'0 0.0
2014-Dec-16 10:28N 43°24' E 004°51'0 0.0
2014-Dec-16 09:31N 43°24' E 004°51'0 0.0
2014-Dec-16 08:28N 43°24' E 004°51'0 0.0
2014-Dec-16 07:28N 43°24' E 004°51'0 0.0
2014-Dec-16 06:31N 43°24' E 004°51'0 0.0
2014-Dec-16 05:25N 43°24' E 004°51'0 0.0
2014-Dec-16 04:32N 43°24' E 004°51'0 0.0
2014-Dec-16 03:31N 43°24' E 004°51'0 0.0
2014-Dec-16 02:25N 43°24' E 004°51'0 0.0
2014-Dec-16 01:10N 43°24' E 004°51'0 0.0
2014-Dec-16 00:16N 43°24' E 004°51'0 0.0
2014-Dec-15 23:28N 43°24' E 004°51'0 0.0
2014-Dec-15 22:31N 43°24' E 004°51'0 0.0
2014-Dec-15 21:28N 43°24' E 004°51'0 0.0
2014-Dec-15 20:28N 43°24' E 004°51'0 0.0
2014-Dec-15 19:28N 43°24' E 004°51'0 0.0
2014-Dec-15 18:31N 43°24' E 004°51'0 0.0
2014-Dec-15 17:31N 43°24' E 004°51'0 0.0
2014-Dec-15 16:31N 43°24' E 004°51'0 0.0
2014-Dec-15 15:31N 43°24' E 004°51'0 0.0
2014-Dec-15 14:31N 43°24' E 004°51'0 0.0
2014-Dec-15 13:19N 43°24' E 004°51'0 0.0
2014-Dec-15 12:25N 43°24' E 004°51'0 0.0
2014-Dec-15 11:28N 43°24' E 004°51'0 0.0
2014-Dec-15 10:31N 43°24' E 004°51'0 0.0
2014-Dec-15 09:31N 43°24' E 004°51'0 0.0
2014-Dec-15 08:28N 43°24' E 004°51'0 0.0
2014-Dec-15 07:31N 43°24' E 004°51'0 0.0
2014-Dec-15 06:31N 43°24' E 004°51'0 0.0
2014-Dec-15 05:31N 43°24' E 004°51'0 0.0
2014-Dec-15 04:31N 43°24' E 004°51'0 0.0
2014-Dec-15 03:31N 43°24' E 004°51'0 0.0
2014-Dec-15 02:31N 43°24' E 004°51'0 0.0
2014-Dec-15 01:31N 43°24' E 004°51'0 0.0
2014-Dec-15 00:31N 43°24' E 004°51'0 0.0
2014-Dec-14 23:28N 43°24' E 004°51'0 0.0
2014-Dec-14 22:31N 43°24' E 004°51'0 0.0
2014-Dec-14 21:31N 43°24' E 004°51'0 0.0
2014-Dec-14 20:28N 43°24' E 004°51'0 0.0
2014-Dec-14 19:31N 43°24' E 004°51'0 0.0
2014-Dec-14 18:31N 43°24' E 004°51'0 0.0
2014-Dec-14 17:25N 43°24' E 004°51'0 0.0
2014-Dec-14 16:31N 43°24' E 004°51'0 0.0
2014-Dec-14 15:28N 43°24' E 004°51'0 0.0
2014-Dec-14 14:31N 43°24' E 004°51'0 0.0
2014-Dec-14 13:28N 43°24' E 004°51'0 0.0
2014-Dec-14 12:31N 43°24' E 004°51'0 0.0
2014-Dec-14 11:31N 43°24' E 004°51'0 0.0
2014-Dec-14 10:31N 43°24' E 004°51'0 0.0
2014-Dec-14 09:28N 43°24' E 004°51'0 0.0
2014-Dec-14 08:28N 43°24' E 004°51'0 0.0
2014-Dec-14 07:28N 43°24' E 004°51'0 0.0
2014-Dec-14 06:31N 43°24' E 004°51'0 0.0
2014-Dec-14 05:28N 43°24' E 004°51'0 0.0
2014-Dec-14 04:31N 43°24' E 004°51'0 0.0
2014-Dec-14 03:31N 43°24' E 004°51'0 0.0
2014-Dec-14 02:31N 43°24' E 004°51'0 0.0
2014-Dec-14 01:31N 43°24' E 004°51'0 0.0
2014-Dec-14 00:31N 43°24' E 004°51'0 0.0
2014-Dec-13 23:31N 43°24' E 004°51'0 0.0
2014-Dec-13 22:31N 43°24' E 004°51'0 0.0
2014-Dec-13 21:31N 43°24' E 004°51'0 0.0
2014-Dec-13 20:31N 43°24' E 004°51'0 0.0
2014-Dec-13 19:31N 43°24' E 004°51'0 0.0
2014-Dec-13 18:28N 43°24' E 004°51'0 0.0
2014-Dec-13 17:31N 43°24' E 004°51'0 0.0
2014-Dec-13 16:31N 43°24' E 004°51'0 0.0
2014-Dec-13 15:28N 43°24' E 004°51'0 0.0
2014-Dec-13 14:25N 43°24' E 004°51'0 0.0
2014-Dec-13 13:31N 43°24' E 004°51'0 0.0
2014-Dec-13 12:31N 43°24' E 004°51'0 0.0
2014-Dec-13 11:31N 43°24' E 004°51'0 0.0
2014-Dec-13 10:22N 43°24' E 004°51'0 0.0
2014-Dec-13 09:28N 43°24' E 004°51'0 0.0
2014-Dec-13 08:31N 43°24' E 004°51'0 0.0
2014-Dec-13 07:28N 43°24' E 004°51'0 0.0
2014-Dec-13 06:33N 43°24' E 004°51'0 0.0
2014-Dec-13 05:33N 43°24' E 004°51'0 0.0
2014-Dec-13 04:33N 43°24' E 004°51'0 0.0
2014-Dec-13 03:33N 43°24' E 004°51'0 0.0
2014-Dec-13 02:33N 43°24' E 004°51'0 0.0
2014-Dec-13 01:33N 43°24' E 004°51'0 0.0
2014-Dec-13 00:33N 43°24' E 004°51'0 0.0
2014-Dec-12 23:33N 43°24' E 004°51'0 0.0
2014-Dec-12 22:33N 43°24' E 004°51'0 0.0
2014-Dec-12 21:33N 43°24' E 004°51'0 0.0
2014-Dec-12 20:33N 43°24' E 004°51'0 0.0
2014-Dec-12 19:33N 43°24' E 004°51'0 0.0
2014-Dec-12 18:33N 43°24' E 004°51'0 0.0
2014-Dec-12 17:33N 43°24' E 004°51'0 0.0
2014-Dec-12 16:33N 43°24' E 004°51'6 5.9
2014-Dec-12 15:33N 43°21' E 004°58'1111.0
2014-Dec-12 14:33N 43°11' E 005°02'3711.0
2014-Dec-12 11:10N 42°39' E 004°35'2211.4
2014-Dec-12 09:14N 42°20' E 004°20'1011.0
2014-Dec-12 08:20N 42°11' E 004°14'9410.7
2014-Dec-11 23:33N 40°50' E 003°11'1010.2
2014-Dec-11 22:33N 40°41' E 003°04'1110.6
2014-Dec-11 21:33N 40°32' E 002°57'1110.8
2014-Dec-11 20:33N 40°23' E 002°50'1110.6
2014-Dec-11 19:33N 40°13' E 002°43'1010.4
2014-Dec-11 18:33N 40°04' E 002°36'1010.5
2014-Dec-11 17:33N 39°55' E 002°29'1010.2
2014-Dec-11 16:33N 39°46' E 002°23'1110.6
2014-Dec-11 15:33N 39°37' E 002°16'10 9.8
2014-Dec-11 14:33N 39°28' E 002°22'9 9.4
2014-Dec-11 13:33N 39°26' E 002°33'8 7.9
2014-Dec-11 12:32N 39°33' E 002°38'0 0.1
2014-Dec-11 11:32N 39°33' E 002°38'0 0.0
2014-Dec-11 10:32N 39°33' E 002°38'0 0.0
2014-Dec-11 09:32N 39°33' E 002°38'0 0.0
2014-Dec-11 08:32N 39°33' E 002°38'0 0.0
2014-Dec-11 07:32N 39°33' E 002°38'0 0.0
2014-Dec-11 06:32N 39°33' E 002°38'0 0.0
2014-Dec-11 05:32N 39°33' E 002°38'0 0.0
2014-Dec-11 04:32N 39°33' E 002°38'0 0.0
2014-Dec-11 03:32N 39°33' E 002°38'0 0.0
2014-Dec-11 02:32N 39°33' E 002°38'0 0.0
2014-Dec-11 01:32N 39°33' E 002°38'0 0.0
2014-Dec-11 00:32N 39°33' E 002°38'0 0.0
2014-Dec-10 23:32N 39°33' E 002°38'0 0.0
2014-Dec-10 22:32N 39°33' E 002°38'0 0.0
2014-Dec-10 21:32N 39°33' E 002°38'0 0.0
2014-Dec-10 20:32N 39°33' E 002°38'0 0.0
2014-Dec-10 19:32N 39°33' E 002°38'0 0.0
2014-Dec-10 18:32N 39°33' E 002°38'0 0.0
2014-Dec-10 17:32N 39°33' E 002°38'0 0.0
2014-Dec-10 16:32N 39°33' E 002°38'0 0.0
2014-Dec-10 15:32N 39°33' E 002°38'0 0.0
2014-Dec-10 14:32N 39°33' E 002°38'0 0.0
2014-Dec-10 13:32N 39°33' E 002°38'0 0.0
2014-Dec-10 12:32N 39°33' E 002°38'0 0.0
2014-Dec-10 11:32N 39°33' E 002°38'0 0.0
2014-Dec-10 10:32N 39°33' E 002°38'0 0.0
2014-Dec-10 09:32N 39°33' E 002°38'0 0.0
2014-Dec-10 08:32N 39°33' E 002°38'0 0.0
2014-Dec-10 07:32N 39°33' E 002°38'0 0.0
2014-Dec-10 06:32N 39°33' E 002°38'0 0.0
2014-Dec-10 05:32N 39°33' E 002°38'0 0.0
2014-Dec-10 04:32N 39°33' E 002°38'0 0.0
2014-Dec-10 03:32N 39°33' E 002°38'0 0.0
2014-Dec-10 02:29N 39°33' E 002°38'0 0.0
2014-Dec-10 01:32N 39°33' E 002°38'0 0.0
2014-Dec-10 00:32N 39°33' E 002°38'0 0.0
2014-Dec-09 23:32N 39°33' E 002°38'0 0.0
2014-Dec-09 22:32N 39°33' E 002°38'0 0.0
2014-Dec-09 21:29N 39°33' E 002°38'0 0.0
2014-Dec-09 20:32N 39°33' E 002°38'0 0.0
2014-Dec-09 19:32N 39°33' E 002°38'0 0.0
2014-Dec-09 18:33N 39°33' E 002°38'2 2.3
2014-Dec-09 17:33N 39°32' E 002°40'0 0.4
2014-Dec-09 16:32N 39°32' E 002°40'0 0.0
2014-Dec-09 15:32N 39°32' E 002°40'0 0.0
2014-Dec-09 14:32N 39°32' E 002°40'0 0.0
2014-Dec-09 13:32N 39°32' E 002°40'0 0.0
2014-Dec-09 12:32N 39°32' E 002°40'0 0.0
2014-Dec-09 11:32N 39°32' E 002°40'0 0.0
2014-Dec-09 10:32N 39°32' E 002°40'0 0.0
2014-Dec-09 09:32N 39°32' E 002°40'  

Dump ship's entire track history